sensor_id;sensor_type;location;lat;lon;timestamp;temperature;humidity
30473;DHT22;17263;48.160;11.452;2023-07-22T00:00:16;15.30;99.90
30473;DHT22;17263;48.160;11.452;2023-07-22T00:02:42;15.30;99.90
30473;DHT22;17263;48.160;11.452;2023-07-22T00:05:09;15.20;99.90
30473;DHT22;17263;48.160;11.452;2023-07-22T00:07:36;15.20;99.90
30473;DHT22;17263;48.160;11.452;2023-07-22T00:10:02;15.20;99.90
30473;DHT22;17263;48.160;11.452;2023-07-22T00:12:28;15.20;99.90
30473;DHT22;17263;48.160;11.452;2023-07-22T00:14:54;15.20;99.90
30473;DHT22;17263;48.160;11.452;2023-07-22T00:17:20;15.20;99.90
30473;DHT22;17263;48.160;11.452;2023-07-22T00:19:47;15.10;99.90
30473;DHT22;17263;48.160;11.452;2023-07-22T00:22:14;15.20;99.90
30473;DHT22;17263;48.160;11.452;2023-07-22T00:24:41;15.10;99.90
30473;DHT22;17263;48.160;11.452;2023-07-22T00:27:07;15.20;99.90
30473;DHT22;17263;48.160;11.452;2023-07-22T00:29:35;15.10;99.90
30473;DHT22;17263;48.160;11.452;2023-07-22T00:32:01;15.20;99.90
30473;DHT22;17263;48.160;11.452;2023-07-22T00:34:27;15.20;99.90
30473;DHT22;17263;48.160;11.452;2023-07-22T00:36:53;15.10;99.90
30473;DHT22;17263;48.160;11.452;2023-07-22T00:39:19;15.10;99.90
30473;DHT22;17263;48.160;11.452;2023-07-22T00:41:46;15.10;99.90
30473;DHT22;17263;48.160;11.452;2023-07-22T00:44:12;15.00;99.90
30473;DHT22;17263;48.160;11.452;2023-07-22T00:46:39;15.00;99.90
30473;DHT22;17263;48.160;11.452;2023-07-22T00:49:07;15.00;99.90
30473;DHT22;17263;48.160;11.452;2023-07-22T00:51:33;15.00;99.90
30473;DHT22;17263;48.160;11.452;2023-07-22T00:53:59;15.00;99.90
30473;DHT22;17263;48.160;11.452;2023-07-22T00:56:26;14.90;99.90
30473;DHT22;17263;48.160;11.452;2023-07-22T00:58:52;14.90;99.90
30473;DHT22;17263;48.160;11.452;2023-07-22T01:01:18;14.90;99.90
30473;DHT22;17263;48.160;11.452;2023-07-22T01:03:44;14.80;99.90
30473;DHT22;17263;48.160;11.452;2023-07-22T01:06:13;14.80;99.90
30473;DHT22;17263;48.160;11.452;2023-07-22T01:08:40;14.80;99.90
30473;DHT22;17263;48.160;11.452;2023-07-22T01:11:06;14.80;99.90
30473;DHT22;17263;48.160;11.452;2023-07-22T01:13:32;14.80;99.90
30473;DHT22;17263;48.160;11.452;2023-07-22T01:15:58;14.70;99.90
30473;DHT22;17263;48.160;11.452;2023-07-22T01:18:24;14.70;99.90
30473;DHT22;17263;48.160;11.452;2023-07-22T01:20:51;14.70;99.90
30473;DHT22;17263;48.160;11.452;2023-07-22T01:23:17;14.70;99.90
30473;DHT22;17263;48.160;11.452;2023-07-22T01:25:43;14.60;99.90
30473;DHT22;17263;48.160;11.452;2023-07-22T01:28:10;14.70;99.90
30473;DHT22;17263;48.160;11.452;2023-07-22T01:30:39;14.60;99.90
30473;DHT22;17263;48.160;11.452;2023-07-22T01:33:05;14.60;99.90
30473;DHT22;17263;48.160;11.452;2023-07-22T01:35:31;14.60;99.90
30473;DHT22;17263;48.160;11.452;2023-07-22T01:37:57;14.60;99.90
30473;DHT22;17263;48.160;11.452;2023-07-22T01:40:24;14.50;99.90
30473;DHT22;17263;48.160;11.452;2023-07-22T01:42:51;14.50;99.90
30473;DHT22;17263;48.160;11.452;2023-07-22T01:45:17;14.50;99.90
30473;DHT22;17263;48.160;11.452;2023-07-22T01:47:43;14.50;99.90
30473;DHT22;17263;48.160;11.452;2023-07-22T01:50:09;14.60;99.90
30473;DHT22;17263;48.160;11.452;2023-07-22T01:52:36;14.60;99.90
30473;DHT22;17263;48.160;11.452;2023-07-22T01:55:02;14.60;99.90
30473;DHT22;17263;48.160;11.452;2023-07-22T01:57:34;14.70;99.90
30473;DHT22;17263;48.160;11.452;2023-07-22T02:00:00;14.70;99.90
30473;DHT22;17263;48.160;11.452;2023-07-22T02:02:26;14.70;99.90
30473;DHT22;17263;48.160;11.452;2023-07-22T02:04:52;14.70;99.90
30473;DHT22;17263;48.160;11.452;2023-07-22T02:07:18;14.70;99.90
30473;DHT22;17263;48.160;11.452;2023-07-22T02:09:44;14.70;99.90
30473;DHT22;17263;48.160;11.452;2023-07-22T02:12:11;14.70;99.90
30473;DHT22;17263;48.160;11.452;2023-07-22T02:14:37;14.70;99.90
30473;DHT22;17263;48.160;11.452;2023-07-22T02:17:03;14.70;99.90
30473;DHT22;17263;48.160;11.452;2023-07-22T02:19:29;14.70;99.90
30473;DHT22;17263;48.160;11.452;2023-07-22T02:21:55;14.70;99.90
30473;DHT22;17263;48.160;11.452;2023-07-22T02:24:22;14.70;99.90
30473;DHT22;17263;48.160;11.452;2023-07-22T02:26:48;14.70;99.90
30473;DHT22;17263;48.160;11.452;2023-07-22T02:29:14;14.70;99.90
30473;DHT22;17263;48.160;11.452;2023-07-22T02:31:40;14.70;99.90
30473;DHT22;17263;48.160;11.452;2023-07-22T02:34:06;14.60;99.90
30473;DHT22;17263;48.160;11.452;2023-07-22T02:36:32;14.60;99.90
30473;DHT22;17263;48.160;11.452;2023-07-22T02:38:58;14.60;99.90
30473;DHT22;17263;48.160;11.452;2023-07-22T02:41:24;14.60;99.90
30473;DHT22;17263;48.160;11.452;2023-07-22T02:43:50;14.60;99.90
30473;DHT22;17263;48.160;11.452;2023-07-22T02:46:16;14.60;99.90
30473;DHT22;17263;48.160;11.452;2023-07-22T02:48:42;14.50;99.90
30473;DHT22;17263;48.160;11.452;2023-07-22T02:51:09;14.50;99.90
30473;DHT22;17263;48.160;11.452;2023-07-22T02:53:36;14.50;99.90
30473;DHT22;17263;48.160;11.452;2023-07-22T02:56:03;14.50;99.90
30473;DHT22;17263;48.160;11.452;2023-07-22T02:58:30;14.50;99.90
30473;DHT22;17263;48.160;11.452;2023-07-22T03:00:56;14.50;99.90
30473;DHT22;17263;48.160;11.452;2023-07-22T03:03:25;14.50;99.90
30473;DHT22;17263;48.160;11.452;2023-07-22T03:05:51;14.60;99.90
30473;DHT22;17263;48.160;11.452;2023-07-22T03:08:18;14.60;99.90
30473;DHT22;17263;48.160;11.452;2023-07-22T03:10:44;14.70;99.90
30473;DHT22;17263;48.160;11.452;2023-07-22T03:13:16;14.70;99.90
30473;DHT22;17263;48.160;11.452;2023-07-22T03:15:43;14.70;99.90
30473;DHT22;17263;48.160;11.452;2023-07-22T03:18:09;14.70;99.90
30473;DHT22;17263;48.160;11.452;2023-07-22T03:20:37;14.80;99.90
30473;DHT22;17263;48.160;11.452;2023-07-22T03:23:04;14.80;99.90
30473;DHT22;17263;48.160;11.452;2023-07-22T03:25:30;14.80;99.90
30473;DHT22;17263;48.160;11.452;2023-07-22T03:27:56;14.80;99.90
30473;DHT22;17263;48.160;11.452;2023-07-22T03:30:22;14.80;99.90
30473;DHT22;17263;48.160;11.452;2023-07-22T03:32:49;14.80;99.90
30473;DHT22;17263;48.160;11.452;2023-07-22T03:35:19;14.80;99.90
30473;DHT22;17263;48.160;11.452;2023-07-22T03:37:45;14.70;99.90
30473;DHT22;17263;48.160;11.452;2023-07-22T03:40:11;14.70;99.90
30473;DHT22;17263;48.160;11.452;2023-07-22T03:42:43;14.60;99.90
30473;DHT22;17263;48.160;11.452;2023-07-22T03:45:09;14.60;99.90
30473;DHT22;17263;48.160;11.452;2023-07-22T03:47:35;14.60;99.90
30473;DHT22;17263;48.160;11.452;2023-07-22T03:50:02;14.50;99.90
30473;DHT22;17263;48.160;11.452;2023-07-22T03:52:28;14.50;99.90
30473;DHT22;17263;48.160;11.452;2023-07-22T03:54:54;14.50;99.90
30473;DHT22;17263;48.160;11.452;2023-07-22T03:57:25;14.50;99.90
30473;DHT22;17263;48.160;11.452;2023-07-22T03:59:52;14.50;99.90
30473;DHT22;17263;48.160;11.452;2023-07-22T04:02:18;14.50;99.90
30473;DHT22;17263;48.160;11.452;2023-07-22T04:04:44;14.50;99.90
30473;DHT22;17263;48.160;11.452;2023-07-22T04:07:10;14.50;99.90
30473;DHT22;17263;48.160;11.452;2023-07-22T04:09:36;14.50;99.90
30473;DHT22;17263;48.160;11.452;2023-07-22T04:12:02;14.60;99.90
30473;DHT22;17263;48.160;11.452;2023-07-22T04:14:28;14.60;99.90
30473;DHT22;17263;48.160;11.452;2023-07-22T04:16:54;14.60;99.90
30473;DHT22;17263;48.160;11.452;2023-07-22T04:19:20;14.70;99.90
30473;DHT22;17263;48.160;11.452;2023-07-22T04:21:47;14.70;99.90
30473;DHT22;17263;48.160;11.452;2023-07-22T04:24:13;14.80;99.90
30473;DHT22;17263;48.160;11.452;2023-07-22T04:26:44;14.80;99.90
30473;DHT22;17263;48.160;11.452;2023-07-22T04:29:10;14.80;99.90
30473;DHT22;17263;48.160;11.452;2023-07-22T04:31:38;14.90;99.90
30473;DHT22;17263;48.160;11.452;2023-07-22T04:34:04;15.00;99.90
30473;DHT22;17263;48.160;11.452;2023-07-22T04:36:31;15.00;99.90
30473;DHT22;17263;48.160;11.452;2023-07-22T04:38:57;15.10;99.90
30473;DHT22;17263;48.160;11.452;2023-07-22T04:41:23;15.20;99.90
30473;DHT22;17263;48.160;11.452;2023-07-22T04:43:50;15.30;99.90
30473;DHT22;17263;48.160;11.452;2023-07-22T04:46:17;15.40;99.90
30473;DHT22;17263;48.160;11.452;2023-07-22T04:48:43;15.60;99.90
30473;DHT22;17263;48.160;11.452;2023-07-22T04:51:09;15.70;99.90
30473;DHT22;17263;48.160;11.452;2023-07-22T04:53:35;15.90;99.90
30473;DHT22;17263;48.160;11.452;2023-07-22T04:56:01;16.00;99.90
30473;DHT22;17263;48.160;11.452;2023-07-22T04:58:28;16.10;99.90
30473;DHT22;17263;48.160;11.452;2023-07-22T05:00:54;16.20;99.90
30473;DHT22;17263;48.160;11.452;2023-07-22T05:03:20;16.20;99.90
30473;DHT22;17263;48.160;11.452;2023-07-22T05:05:46;16.30;99.90
30473;DHT22;17263;48.160;11.452;2023-07-22T05:08:12;16.30;99.90
30473;DHT22;17263;48.160;11.452;2023-07-22T05:10:39;16.30;99.90
30473;DHT22;17263;48.160;11.452;2023-07-22T05:13:05;16.30;99.90
30473;DHT22;17263;48.160;11.452;2023-07-22T05:15:31;16.40;99.90
30473;DHT22;17263;48.160;11.452;2023-07-22T05:17:57;16.40;99.90
30473;DHT22;17263;48.160;11.452;2023-07-22T05:20:23;16.50;99.90
30473;DHT22;17263;48.160;11.452;2023-07-22T05:22:49;16.60;99.90
30473;DHT22;17263;48.160;11.452;2023-07-22T05:25:15;16.60;99.90
30473;DHT22;17263;48.160;11.452;2023-07-22T05:27:41;16.70;99.90
30473;DHT22;17263;48.160;11.452;2023-07-22T05:30:08;16.70;99.90
30473;DHT22;17263;48.160;11.452;2023-07-22T05:32:34;16.80;99.90
30473;DHT22;17263;48.160;11.452;2023-07-22T05:35:01;16.70;99.90
30473;DHT22;17263;48.160;11.452;2023-07-22T05:37:31;16.80;99.90
30473;DHT22;17263;48.160;11.452;2023-07-22T05:39:58;16.80;99.90
30473;DHT22;17263;48.160;11.452;2023-07-22T05:42:24;16.90;99.90
30473;DHT22;17263;48.160;11.452;2023-07-22T05:44:50;16.90;99.90
30473;DHT22;17263;48.160;11.452;2023-07-22T05:47:16;17.00;99.90
30473;DHT22;17263;48.160;11.452;2023-07-22T05:49:42;17.00;99.90
30473;DHT22;17263;48.160;11.452;2023-07-22T05:52:08;17.00;99.90
30473;DHT22;17263;48.160;11.452;2023-07-22T05:54:34;17.00;99.90
30473;DHT22;17263;48.160;11.452;2023-07-22T05:57:00;17.00;99.90
30473;DHT22;17263;48.160;11.452;2023-07-22T05:59:26;17.10;99.90
30473;DHT22;17263;48.160;11.452;2023-07-22T06:01:53;17.10;99.90
30473;DHT22;17263;48.160;11.452;2023-07-22T06:04:19;17.30;99.90
30473;DHT22;17263;48.160;11.452;2023-07-22T06:06:45;17.50;99.90
30473;DHT22;17263;48.160;11.452;2023-07-22T06:09:11;17.70;99.90
30473;DHT22;17263;48.160;11.452;2023-07-22T06:11:37;17.90;99.90
30473;DHT22;17263;48.160;11.452;2023-07-22T06:14:03;17.90;99.90
30473;DHT22;17263;48.160;11.452;2023-07-22T06:16:29;17.90;99.90
30473;DHT22;17263;48.160;11.452;2023-07-22T06:18:55;18.00;99.90
30473;DHT22;17263;48.160;11.452;2023-07-22T06:21:21;18.20;99.90
30473;DHT22;17263;48.160;11.452;2023-07-22T06:23:47;18.50;99.90
30473;DHT22;17263;48.160;11.452;2023-07-22T06:26:13;18.80;99.90
30473;DHT22;17263;48.160;11.452;2023-07-22T06:28:39;19.30;99.90
30473;DHT22;17263;48.160;11.452;2023-07-22T06:31:05;19.50;99.90
30473;DHT22;17263;48.160;11.452;2023-07-22T06:33:32;19.60;99.90
30473;DHT22;17263;48.160;11.452;2023-07-22T06:35:59;19.70;99.90
30473;DHT22;17263;48.160;11.452;2023-07-22T06:38:25;20.20;99.90
30473;DHT22;17263;48.160;11.452;2023-07-22T06:40:52;21.00;99.90
30473;DHT22;17263;48.160;11.452;2023-07-22T06:43:19;22.00;99.90
30473;DHT22;17263;48.160;11.452;2023-07-22T06:45:45;22.50;99.90
30473;DHT22;17263;48.160;11.452;2023-07-22T06:48:11;22.40;99.90
30473;DHT22;17263;48.160;11.452;2023-07-22T06:50:37;22.20;99.90
30473;DHT22;17263;48.160;11.452;2023-07-22T06:53:03;22.00;99.90
30473;DHT22;17263;48.160;11.452;2023-07-22T06:55:29;22.20;99.90
30473;DHT22;17263;48.160;11.452;2023-07-22T06:57:56;22.70;99.90
30473;DHT22;17263;48.160;11.452;2023-07-22T07:00:22;22.80;99.90
30473;DHT22;17263;48.160;11.452;2023-07-22T07:02:48;22.80;99.90
30473;DHT22;17263;48.160;11.452;2023-07-22T07:05:14;22.80;99.90
30473;DHT22;17263;48.160;11.452;2023-07-22T07:07:42;23.10;99.90
30473;DHT22;17263;48.160;11.452;2023-07-22T07:10:08;23.70;99.90
30473;DHT22;17263;48.160;11.452;2023-07-22T07:12:34;24.50;99.90
30473;DHT22;17263;48.160;11.452;2023-07-22T07:15:00;25.40;99.90
30473;DHT22;17263;48.160;11.452;2023-07-22T07:17:26;26.10;99.90
30473;DHT22;17263;48.160;11.452;2023-07-22T07:19:53;26.60;99.90
30473;DHT22;17263;48.160;11.452;2023-07-22T07:22:19;26.70;99.90
30473;DHT22;17263;48.160;11.452;2023-07-22T07:24:45;26.80;99.90
30473;DHT22;17263;48.160;11.452;2023-07-22T07:27:11;27.10;99.40
30473;DHT22;17263;48.160;11.452;2023-07-22T07:29:37;27.00;96.50
30473;DHT22;17263;48.160;11.452;2023-07-22T07:32:03;26.70;98.20
30473;DHT22;17263;48.160;11.452;2023-07-22T07:34:29;26.80;96.80
30473;DHT22;17263;48.160;11.452;2023-07-22T07:36:55;26.90;97.90
30473;DHT22;17263;48.160;11.452;2023-07-22T07:39:21;27.20;96.60
30473;DHT22;17263;48.160;11.452;2023-07-22T07:41:48;27.20;94.80
30473;DHT22;17263;48.160;11.452;2023-07-22T07:44:14;27.20;94.90
30473;DHT22;17263;48.160;11.452;2023-07-22T07:46:40;27.10;94.00
30473;DHT22;17263;48.160;11.452;2023-07-22T07:49:06;27.30;93.60
30473;DHT22;17263;48.160;11.452;2023-07-22T07:51:32;27.70;93.30
30473;DHT22;17263;48.160;11.452;2023-07-22T07:53:59;28.00;92.40
30473;DHT22;17263;48.160;11.452;2023-07-22T07:56:25;28.20;91.30
30473;DHT22;17263;48.160;11.452;2023-07-22T07:58:52;28.30;92.20
30473;DHT22;17263;48.160;11.452;2023-07-22T08:01:19;28.60;90.90
30473;DHT22;17263;48.160;11.452;2023-07-22T08:03:45;28.80;89.50
30473;DHT22;17263;48.160;11.452;2023-07-22T08:06:11;29.20;88.60
30473;DHT22;17263;48.160;11.452;2023-07-22T08:08:38;29.40;85.70
30473;DHT22;17263;48.160;11.452;2023-07-22T08:11:07;29.60;84.60
30473;DHT22;17263;48.160;11.452;2023-07-22T08:13:34;29.70;83.00
30473;DHT22;17263;48.160;11.452;2023-07-22T08:16:05;29.80;82.40
30473;DHT22;17263;48.160;11.452;2023-07-22T08:18:32;29.80;81.00
30473;DHT22;17263;48.160;11.452;2023-07-22T08:20:58;30.00;80.20
30473;DHT22;17263;48.160;11.452;2023-07-22T08:23:24;30.00;78.50
30473;DHT22;17263;48.160;11.452;2023-07-22T08:25:50;30.00;77.20
30473;DHT22;17263;48.160;11.452;2023-07-22T08:28:16;30.10;77.40
30473;DHT22;17263;48.160;11.452;2023-07-22T08:30:43;30.20;76.70
30473;DHT22;17263;48.160;11.452;2023-07-22T08:33:11;30.30;74.80
30473;DHT22;17263;48.160;11.452;2023-07-22T08:35:40;30.10;73.30
30473;DHT22;17263;48.160;11.452;2023-07-22T08:38:07;29.80;70.70
30473;DHT22;17263;48.160;11.452;2023-07-22T08:40:35;29.50;73.30
30473;DHT22;17263;48.160;11.452;2023-07-22T08:43:06;29.50;72.90
30473;DHT22;17263;48.160;11.452;2023-07-22T08:45:34;29.60;74.20
30473;DHT22;17263;48.160;11.452;2023-07-22T08:48:07;29.60;70.70
30473;DHT22;17263;48.160;11.452;2023-07-22T08:51:03;29.70;70.30
30473;DHT22;17263;48.160;11.452;2023-07-22T08:53:30;29.60;66.80
30473;DHT22;17263;48.160;11.452;2023-07-22T08:55:59;29.60;68.00
30473;DHT22;17263;48.160;11.452;2023-07-22T08:58:25;29.80;67.50
30473;DHT22;17263;48.160;11.452;2023-07-22T09:01:07;29.80;66.80
30473;DHT22;17263;48.160;11.452;2023-07-22T09:03:35;29.80;67.00
30473;DHT22;17263;48.160;11.452;2023-07-22T09:06:01;29.80;66.50
30473;DHT22;17263;48.160;11.452;2023-07-22T09:08:30;29.80;67.20
30473;DHT22;17263;48.160;11.452;2023-07-22T09:10:56;29.80;64.40
30473;DHT22;17263;48.160;11.452;2023-07-22T09:13:24;29.80;65.10
30473;DHT22;17263;48.160;11.452;2023-07-22T09:15:50;29.70;65.10
30473;DHT22;17263;48.160;11.452;2023-07-22T09:18:17;29.60;65.60
30473;DHT22;17263;48.160;11.452;2023-07-22T09:20:43;29.50;66.80
30473;DHT22;17263;48.160;11.452;2023-07-22T09:23:09;29.30;63.60
30473;DHT22;17263;48.160;11.452;2023-07-22T09:25:35;29.20;65.80
30473;DHT22;17263;48.160;11.452;2023-07-22T09:28:01;29.00;64.70
30473;DHT22;17263;48.160;11.452;2023-07-22T09:30:29;29.10;67.10
30473;DHT22;17263;48.160;11.452;2023-07-22T09:32:57;29.10;64.80
30473;DHT22;17263;48.160;11.452;2023-07-22T09:35:28;29.20;62.60
30473;DHT22;17263;48.160;11.452;2023-07-22T09:37:55;29.10;61.80
30473;DHT22;17263;48.160;11.452;2023-07-22T09:40:27;29.00;63.70
30473;DHT22;17263;48.160;11.452;2023-07-22T09:42:56;29.10;63.10
30473;DHT22;17263;48.160;11.452;2023-07-22T09:45:23;29.10;62.80
30473;DHT22;17263;48.160;11.452;2023-07-22T09:47:51;29.20;63.60
30473;DHT22;17263;48.160;11.452;2023-07-22T09:50:23;29.20;62.30
30473;DHT22;17263;48.160;11.452;2023-07-22T09:52:54;29.20;62.40
30473;DHT22;17263;48.160;11.452;2023-07-22T09:55:22;29.20;62.90
30473;DHT22;17263;48.160;11.452;2023-07-22T09:57:58;29.20;62.30
30473;DHT22;17263;48.160;11.452;2023-07-22T10:00:28;29.30;60.50
30473;DHT22;17263;48.160;11.452;2023-07-22T10:02:57;29.30;61.40
30473;DHT22;17263;48.160;11.452;2023-07-22T10:05:24;29.40;60.50
30473;DHT22;17263;48.160;11.452;2023-07-22T10:07:58;29.40;60.50
30473;DHT22;17263;48.160;11.452;2023-07-22T10:10:31;29.30;58.80
30473;DHT22;17263;48.160;11.452;2023-07-22T10:12:58;29.10;57.90
30473;DHT22;17263;48.160;11.452;2023-07-22T10:15:32;28.60;58.80
30473;DHT22;17263;48.160;11.452;2023-07-22T10:18:00;28.60;61.90
30473;DHT22;17263;48.160;11.452;2023-07-22T10:20:29;28.60;60.50
30473;DHT22;17263;48.160;11.452;2023-07-22T10:22:55;28.60;61.60
30473;DHT22;17263;48.160;11.452;2023-07-22T10:25:22;28.70;59.60
30473;DHT22;17263;48.160;11.452;2023-07-22T10:27:50;28.60;60.30
30473;DHT22;17263;48.160;11.452;2023-07-22T10:30:17;28.30;61.80
30473;DHT22;17263;48.160;11.452;2023-07-22T10:32:45;28.20;62.00
30473;DHT22;17263;48.160;11.452;2023-07-22T10:35:16;28.20;61.40
30473;DHT22;17263;48.160;11.452;2023-07-22T10:37:45;28.20;61.40
30473;DHT22;17263;48.160;11.452;2023-07-22T10:40:27;28.10;59.10
30473;DHT22;17263;48.160;11.452;2023-07-22T10:42:58;28.00;60.40
30473;DHT22;17263;48.160;11.452;2023-07-22T10:45:31;27.90;62.30
30473;DHT22;17263;48.160;11.452;2023-07-22T10:53:05;27.30;63.40
30473;DHT22;17263;48.160;11.452;2023-07-22T10:55:31;27.10;63.50
30473;DHT22;17263;48.160;11.452;2023-07-22T10:58:03;26.90;64.00
30473;DHT22;17263;48.160;11.452;2023-07-22T11:00:30;26.60;63.70
30473;DHT22;17263;48.160;11.452;2023-07-22T11:03:14;26.40;66.50
30473;DHT22;17263;48.160;11.452;2023-07-22T11:05:52;26.20;66.70
30473;DHT22;17263;48.160;11.452;2023-07-22T11:08:39;26.10;66.40
30473;DHT22;17263;48.160;11.452;2023-07-22T11:11:06;26.00;67.70
30473;DHT22;17263;48.160;11.452;2023-07-22T11:13:37;25.70;67.80
30473;DHT22;17263;48.160;11.452;2023-07-22T11:16:04;25.50;69.00
30473;DHT22;17263;48.160;11.452;2023-07-22T11:18:40;25.30;68.00
30473;DHT22;17263;48.160;11.452;2023-07-22T11:21:08;25.10;69.50
30473;DHT22;17263;48.160;11.452;2023-07-22T11:23:35;25.00;70.20
30473;DHT22;17263;48.160;11.452;2023-07-22T11:26:02;25.00;69.30
30473;DHT22;17263;48.160;11.452;2023-07-22T11:28:28;24.90;69.70
30473;DHT22;17263;48.160;11.452;2023-07-22T11:30:54;25.00;69.80
30473;DHT22;17263;48.160;11.452;2023-07-22T11:33:21;25.00;68.90
30473;DHT22;17263;48.160;11.452;2023-07-22T11:35:47;25.00;68.80
30473;DHT22;17263;48.160;11.452;2023-07-22T11:38:13;24.90;67.50
30473;DHT22;17263;48.160;11.452;2023-07-22T11:40:39;24.90;69.40
30473;DHT22;17263;48.160;11.452;2023-07-22T11:43:07;24.90;70.60
30473;DHT22;17263;48.160;11.452;2023-07-22T11:45:33;25.10;70.10
30473;DHT22;17263;48.160;11.452;2023-07-22T11:47:59;25.20;69.20
30473;DHT22;17263;48.160;11.452;2023-07-22T11:50:35;25.30;69.50
30473;DHT22;17263;48.160;11.452;2023-07-22T11:53:01;25.30;67.00
30473;DHT22;17263;48.160;11.452;2023-07-22T11:55:27;25.00;66.80
30473;DHT22;17263;48.160;11.452;2023-07-22T11:57:54;24.80;67.80
30473;DHT22;17263;48.160;11.452;2023-07-22T12:00:21;24.80;68.20
30473;DHT22;17263;48.160;11.452;2023-07-22T12:02:47;24.80;69.20
30473;DHT22;17263;48.160;11.452;2023-07-22T12:05:21;24.80;68.80
30473;DHT22;17263;48.160;11.452;2023-07-22T12:07:47;24.80;68.90
30473;DHT22;17263;48.160;11.452;2023-07-22T12:10:15;24.80;69.30
30473;DHT22;17263;48.160;11.452;2023-07-22T12:12:43;24.90;68.90
30473;DHT22;17263;48.160;11.452;2023-07-22T12:15:18;24.90;68.20
30473;DHT22;17263;48.160;11.452;2023-07-22T12:18:00;25.00;68.70
30473;DHT22;17263;48.160;11.452;2023-07-22T12:20:30;25.00;67.90
30473;DHT22;17263;48.160;11.452;2023-07-22T12:22:58;25.00;67.20
30473;DHT22;17263;48.160;11.452;2023-07-22T12:25:24;25.10;67.60
30473;DHT22;17263;48.160;11.452;2023-07-22T12:27:51;25.10;67.50
30473;DHT22;17263;48.160;11.452;2023-07-22T12:30:18;25.10;66.50
30473;DHT22;17263;48.160;11.452;2023-07-22T12:32:44;25.10;67.20
30473;DHT22;17263;48.160;11.452;2023-07-22T12:35:10;25.20;67.10
30473;DHT22;17263;48.160;11.452;2023-07-22T12:37:36;25.30;67.10
30473;DHT22;17263;48.160;11.452;2023-07-22T12:40:03;25.40;67.40
30473;DHT22;17263;48.160;11.452;2023-07-22T12:42:36;25.40;67.10
30473;DHT22;17263;48.160;11.452;2023-07-22T12:45:04;25.40;65.30
30473;DHT22;17263;48.160;11.452;2023-07-22T12:47:30;25.50;64.40
30473;DHT22;17263;48.160;11.452;2023-07-22T12:49:56;25.50;66.50
30473;DHT22;17263;48.160;11.452;2023-07-22T12:52:22;25.50;65.70
30473;DHT22;17263;48.160;11.452;2023-07-22T12:54:48;25.50;64.80
30473;DHT22;17263;48.160;11.452;2023-07-22T12:57:14;25.40;66.10
30473;DHT22;17263;48.160;11.452;2023-07-22T12:59:40;25.40;66.30
30473;DHT22;17263;48.160;11.452;2023-07-22T13:02:07;25.50;67.50
30473;DHT22;17263;48.160;11.452;2023-07-22T13:04:33;25.50;67.50
30473;DHT22;17263;48.160;11.452;2023-07-22T13:06:59;25.50;66.80
30473;DHT22;17263;48.160;11.452;2023-07-22T13:09:25;25.60;66.90
30473;DHT22;17263;48.160;11.452;2023-07-22T13:11:51;25.50;65.40
30473;DHT22;17263;48.160;11.452;2023-07-22T13:14:17;25.50;65.60
30473;DHT22;17263;48.160;11.452;2023-07-22T13:16:44;25.50;63.90
30473;DHT22;17263;48.160;11.452;2023-07-22T13:19:10;25.50;63.10
30473;DHT22;17263;48.160;11.452;2023-07-22T13:21:36;25.50;62.80
30473;DHT22;17263;48.160;11.452;2023-07-22T13:24:02;25.40;63.20
30473;DHT22;17263;48.160;11.452;2023-07-22T13:26:28;25.40;64.00
30473;DHT22;17263;48.160;11.452;2023-07-22T13:28:54;25.40;64.60
30473;DHT22;17263;48.160;11.452;2023-07-22T13:31:20;25.40;64.40
30473;DHT22;17263;48.160;11.452;2023-07-22T13:33:46;25.20;65.30
30473;DHT22;17263;48.160;11.452;2023-07-22T13:36:12;25.10;63.90
30473;DHT22;17263;48.160;11.452;2023-07-22T13:38:38;25.10;66.70
30473;DHT22;17263;48.160;11.452;2023-07-22T13:41:04;25.00;66.60
30473;DHT22;17263;48.160;11.452;2023-07-22T13:43:30;24.90;66.70
30473;DHT22;17263;48.160;11.452;2023-07-22T13:45:56;24.90;65.30
30473;DHT22;17263;48.160;11.452;2023-07-22T13:48:23;25.00;67.30
30473;DHT22;17263;48.160;11.452;2023-07-22T13:50:49;25.00;67.50
30473;DHT22;17263;48.160;11.452;2023-07-22T13:53:15;25.00;65.50
30473;DHT22;17263;48.160;11.452;2023-07-22T13:55:42;25.00;66.30
30473;DHT22;17263;48.160;11.452;2023-07-22T13:58:08;25.10;66.40
30473;DHT22;17263;48.160;11.452;2023-07-22T14:00:34;25.10;67.20
30473;DHT22;17263;48.160;11.452;2023-07-22T14:03:00;25.10;67.40
30473;DHT22;17263;48.160;11.452;2023-07-22T14:05:26;25.20;64.50
30473;DHT22;17263;48.160;11.452;2023-07-22T14:07:52;25.20;65.70
30473;DHT22;17263;48.160;11.452;2023-07-22T14:10:20;25.20;66.10
30473;DHT22;17263;48.160;11.452;2023-07-22T14:12:46;25.20;65.40
30473;DHT22;17263;48.160;11.452;2023-07-22T14:15:12;25.30;64.90
30473;DHT22;17263;48.160;11.452;2023-07-22T14:17:38;25.20;65.90
30473;DHT22;17263;48.160;11.452;2023-07-22T14:20:05;25.20;65.90
30473;DHT22;17263;48.160;11.452;2023-07-22T14:22:33;25.20;67.10
30473;DHT22;17263;48.160;11.452;2023-07-22T14:24:59;25.20;65.50
30473;DHT22;17263;48.160;11.452;2023-07-22T14:27:25;25.20;63.70
30473;DHT22;17263;48.160;11.452;2023-07-22T14:29:51;25.10;63.90
30473;DHT22;17263;48.160;11.452;2023-07-22T14:32:17;25.10;63.90
30473;DHT22;17263;48.160;11.452;2023-07-22T14:34:43;25.10;63.50
30473;DHT22;17263;48.160;11.452;2023-07-22T14:37:09;25.10;64.90
30473;DHT22;17263;48.160;11.452;2023-07-22T14:39:35;25.10;63.40
30473;DHT22;17263;48.160;11.452;2023-07-22T14:42:01;24.90;62.60
30473;DHT22;17263;48.160;11.452;2023-07-22T14:44:27;24.90;65.60
30473;DHT22;17263;48.160;11.452;2023-07-22T14:46:53;25.00;64.10
30473;DHT22;17263;48.160;11.452;2023-07-22T14:49:19;25.00;64.10
30473;DHT22;17263;48.160;11.452;2023-07-22T14:51:45;25.00;65.00
30473;DHT22;17263;48.160;11.452;2023-07-22T14:54:11;24.90;65.90
30473;DHT22;17263;48.160;11.452;2023-07-22T14:56:37;25.00;64.30
30473;DHT22;17263;48.160;11.452;2023-07-22T14:59:03;25.00;65.40
30473;DHT22;17263;48.160;11.452;2023-07-22T15:01:37;25.10;65.80
30473;DHT22;17263;48.160;11.452;2023-07-22T15:04:03;25.10;65.20
30473;DHT22;17263;48.160;11.452;2023-07-22T15:06:29;25.10;64.80
30473;DHT22;17263;48.160;11.452;2023-07-22T15:08:57;25.20;64.70
30473;DHT22;17263;48.160;11.452;2023-07-22T15:11:23;25.10;64.20
30473;DHT22;17263;48.160;11.452;2023-07-22T15:13:49;25.10;65.30
30473;DHT22;17263;48.160;11.452;2023-07-22T15:16:15;25.10;64.00
30473;DHT22;17263;48.160;11.452;2023-07-22T15:18:41;25.10;64.60